Time;durP1;ratioP1;P1;durP2;ratioP2;P2;SDS_P1;SDS_P2;PMS_P1;PMS_P2;Temp;Humidity;BMP_temperature;BMP_pressure;BME280_temperature;BME280_humidity;BME280_pressure;Samples;Min_cycle;Max_cycle;Signal;HPM_P1;HPM_P2
2024/01/09 00:02:12;;;;;;;1999.90;999.90;;;-0.20;99.90;;;;;;5052584;28;20488;-74
2024/01/09 00:04:38;;;;;;;1999.90;999.90;;;-0.20;99.90;;;;;;5052523;28;20112;-74
2024/01/09 00:07:04;;;;;;;1999.90;999.90;;;-0.20;99.90;;;;;;5052294;28;20060;-74
2024/01/09 00:09:33;;;;;;;1999.90;999.90;;;-0.10;99.90;;;;;;5051850;28;20032;-74
2024/01/09 00:11:58;;;;;;;1999.90;999.90;;;-0.10;99.90;;;;;;5051712;28;20483;-74
2024/01/09 00:14:24;;;;;;;1999.90;999.90;;;-0.10;99.90;;;;;;5052302;28;20029;-74
2024/01/09 00:16:50;;;;;;;1999.90;999.90;;;-0.10;99.90;;;;;;5052296;28;20060;-74
2024/01/09 00:19:16;;;;;;;1999.90;999.90;;;-0.10;99.90;;;;;;5052474;28;20484;-74
2024/01/09 00:21:42;;;;;;;1999.90;999.90;;;-0.10;99.90;;;;;;5052108;28;20104;-74
2024/01/09 00:24:08;;;;;;;1999.90;999.90;;;-0.10;99.90;;;;;;5052446;28;20506;-74
2024/01/09 00:26:43;;;;;;;1999.90;999.90;;;-0.10;99.90;;;;;;5064208;28;20035;-74
2024/01/09 00:29:09;;;;;;;1999.90;999.90;;;-0.10;99.90;;;;;;5072463;28;20086;-74
2024/01/09 00:31:35;;;;;;;1999.90;999.90;;;-0.20;99.90;;;;;;5050631;28;20021;-74
2024/01/09 00:34:01;;;;;;;1999.90;999.90;;;-0.10;99.90;;;;;;5051644;28;20495;-74
2024/01/09 00:36:26;;;;;;;1999.90;999.90;;;-0.10;99.90;;;;;;5051782;28;20100;-74
2024/01/09 00:38:52;;;;;;;1999.90;999.90;;;-0.10;99.90;;;;;;5051994;28;20021;-74
2024/01/09 00:41:18;;;;;;;1999.90;999.90;;;-0.10;99.90;;;;;;5052173;28;20029;-74
2024/01/09 00:43:43;;;;;;;1999.90;999.90;;;0.00;99.90;;;;;;5051583;28;20025;-74
2024/01/09 00:46:09;;;;;;;1999.90;999.90;;;0.00;99.90;;;;;;5051916;28;20040;-74
2024/01/09 00:48:35;;;;;;;1999.90;999.90;;;-0.10;99.90;;;;;;5053823;28;20025;-74
2024/01/09 00:51:00;;;;;;;1999.90;999.90;;;-0.10;99.90;;;;;;5055629;28;20060;-74
2024/01/09 00:53:26;;;;;;;1999.90;999.90;;;-0.10;99.90;;;;;;5055916;28;20017;-74
2024/01/09 00:55:52;;;;;;;1999.90;999.90;;;0.00;99.90;;;;;;5056217;28;20032;-74
2024/01/09 00:58:18;;;;;;;1999.90;999.90;;;0.00;99.90;;;;;;5055636;28;20410;-74
2024/01/09 01:00:43;;;;;;;1999.90;999.90;;;0.00;99.90;;;;;;5056131;28;20082;-73
2024/01/09 01:03:09;;;;;;;1999.90;999.90;;;-0.10;99.90;;;;;;5055189;28;20036;-74
2024/01/09 01:05:35;;;;;;;1999.90;999.90;;;0.00;99.90;;;;;;5052442;28;20029;-74
2024/01/09 01:08:01;;;;;;;1999.90;999.90;;;0.00;99.90;;;;;;5035320;28;20018;-74
2024/01/09 01:10:26;;;;;;;1999.90;999.90;;;-0.10;99.90;;;;;;5048686;28;20056;-74
2024/01/09 01:12:52;;;;;;;1999.90;999.90;;;0.00;99.90;;;;;;5055678;28;20369;-74
2024/01/09 01:15:18;;;;;;;1999.90;999.90;;;0.00;99.90;;;;;;5055546;28;20262;-74
2024/01/09 01:17:43;;;;;;;1999.90;999.90;;;0.00;99.90;;;;;;5055516;28;20103;-74
2024/01/09 01:20:09;;;;;;;1999.90;999.90;;;0.00;99.90;;;;;;5055284;28;20025;-74
2024/01/09 01:22:35;;;;;;;1999.90;999.90;;;0.00;99.90;;;;;;5055080;28;20025;-74
2024/01/09 01:25:01;;;;;;;1999.90;999.90;;;0.00;99.90;;;;;;5055228;28;20036;-74
2024/01/09 01:27:27;;;;;;;1999.90;999.90;;;0.00;99.90;;;;;;5037250;28;20051;-74
2024/01/09 01:29:52;;;;;;;1999.90;999.90;;;0.00;99.90;;;;;;5055077;28;20415;-74
2024/01/09 01:32:18;;;;;;;1999.90;999.90;;;0.10;99.90;;;;;;5055257;28;20032;-74
2024/01/09 01:34:44;;;;;;;1999.90;999.90;;;0.10;99.90;;;;;;5054684;28;20033;-74
2024/01/09 01:37:09;;;;;;;1999.90;999.90;;;0.10;99.90;;;;;;5054711;28;20443;-74
2024/01/09 01:39:36;;;;;;;1999.90;999.90;;;0.10;99.90;;;;;;5054297;28;20105;-74
2024/01/09 01:42:02;;;;;;;1999.90;999.90;;;0.10;99.90;;;;;;5055281;28;20055;-74
2024/01/09 01:44:28;;;;;;;1999.90;999.90;;;0.10;99.90;;;;;;5055045;28;20056;-74
2024/01/09 01:46:53;;;;;;;1999.90;999.90;;;0.10;99.90;;;;;;5054957;28;20025;-74
2024/01/09 01:49:20;;;;;;;1999.90;999.90;;;0.10;99.90;;;;;;5054703;28;20528;-74
2024/01/09 01:51:48;;;;;;;1999.90;999.90;;;0.10;99.90;;;;;;5054562;28;20021;-74
2024/01/09 01:54:15;;;;;;;1999.90;999.90;;;0.20;99.90;;;;;;5054937;28;20384;-74
2024/01/09 01:56:43;;;;;;;1999.90;999.90;;;0.20;99.90;;;;;;5055083;28;20029;-74
2024/01/09 01:59:10;;;;;;;1999.90;999.90;;;0.10;99.90;;;;;;5054702;28;20131;-74
2024/01/09 02:01:37;;;;;;;1999.90;999.90;;;0.10;99.90;;;;;;5054166;28;20032;-74
2024/01/09 02:04:03;;;;;;;1999.90;999.90;;;0.10;99.90;;;;;;5054466;28;20021;-74
2024/01/09 02:06:31;;;;;;;1999.90;999.90;;;0.10;99.90;;;;;;5054609;28;20029;-74
2024/01/09 02:08:57;;;;;;;1999.90;999.90;;;0.10;99.90;;;;;;5054419;28;20055;-74
2024/01/09 02:11:23;;;;;;;1999.90;999.90;;;0.10;99.90;;;;;;5054890;28;20102;-74
2024/01/09 02:13:48;;;;;;;1999.90;999.90;;;0.00;99.90;;;;;;5053990;28;20040;-74
2024/01/09 02:16:14;;;;;;;1999.90;999.90;;;0.00;99.90;;;;;;5054326;28;20040;-74
2024/01/09 02:18:40;;;;;;;1999.90;999.90;;;0.00;99.90;;;;;;5054380;28;20120;-74
2024/01/09 02:21:06;;;;;;;1999.90;999.90;;;-0.10;99.90;;;;;;5054565;28;20104;-74
2024/01/09 02:23:31;;;;;;;1999.90;999.90;;;0.00;99.90;;;;;;5054260;28;20040;-74
2024/01/09 02:25:58;;;;;;;1999.90;999.90;;;0.00;99.90;;;;;;5060662;28;20040;-74
2024/01/09 02:28:27;;;;;;;1999.90;999.90;;;0.00;99.90;;;;;;5074467;28;20086;-74
2024/01/09 02:30:54;;;;;;;1999.90;999.90;;;0.00;99.90;;;;;;5074053;28;20107;-74
2024/01/09 02:33:19;;;;;;;1999.90;999.90;;;0.00;99.90;;;;;;5055987;28;20061;-74
2024/01/09 02:35:45;;;;;;;1999.90;999.90;;;0.00;99.90;;;;;;5053476;28;20507;-74
2024/01/09 02:38:11;;;;;;;1999.90;999.90;;;0.00;99.90;;;;;;5053152;28;20400;-74
2024/01/09 02:40:37;;;;;;;1999.90;999.90;;;-0.10;99.90;;;;;;5053768;28;20056;-74
2024/01/09 02:43:02;;;;;;;1999.90;999.90;;;-0.10;99.90;;;;;;5054215;28;20029;-74
2024/01/09 02:45:28;;;;;;;1999.90;999.90;;;-0.10;99.90;;;;;;5053928;28;20079;-74
2024/01/09 02:47:54;;;;;;;1999.90;999.90;;;-0.10;99.90;;;;;;5053902;28;20111;-74
2024/01/09 02:50:20;;;;;;;1999.90;999.90;;;-0.10;99.90;;;;;;5053383;28;20021;-74
2024/01/09 02:52:46;;;;;;;1999.90;999.90;;;-0.10;99.90;;;;;;5053617;28;20102;-74
2024/01/09 02:55:12;;;;;;;1999.90;999.90;;;-0.20;99.90;;;;;;5035851;28;20043;-74
2024/01/09 02:57:40;;;;;;;1999.90;999.90;;;-0.20;99.90;;;;;;5053601;28;20029;-74
2024/01/09 03:00:10;;;;;;;1999.90;999.90;;;-0.30;99.90;;;;;;5053620;28;20110;-74
2024/01/09 03:02:36;;;;;;;1999.90;999.90;;;-0.30;99.90;;;;;;5053246;28;20029;-74
2024/01/09 03:05:04;;;;;;;1999.90;999.90;;;-0.30;99.90;;;;;;5053212;28;20103;-74
2024/01/09 03:07:30;;;;;;;1999.90;999.90;;;-0.20;99.90;;;;;;5052589;28;20545;-74
2024/01/09 03:09:56;;;;;;;1999.90;999.90;;;-0.20;99.90;;;;;;5052723;28;20060;-74
2024/01/09 03:12:22;;;;;;;1999.90;999.90;;;-0.20;99.90;;;;;;5053287;28;20041;-74
2024/01/09 03:14:47;;;;;;;1999.90;999.90;;;-0.30;99.90;;;;;;5052868;28;20033;-74
2024/01/09 03:17:13;;;;;;;1999.90;999.90;;;-0.30;99.90;;;;;;5053282;28;20044;-74
2024/01/09 03:19:40;;;;;;;1999.90;999.90;;;-0.30;99.90;;;;;;5052858;28;20033;-74
2024/01/09 03:22:06;;;;;;;1999.90;999.90;;;-0.30;99.90;;;;;;5052951;28;20057;-74
2024/01/09 03:24:32;;;;;;;1999.90;999.90;;;-0.30;99.90;;;;;;5053204;28;20436;-74
2024/01/09 03:26:57;;;;;;;1999.90;999.90;;;-0.40;99.90;;;;;;5068014;28;20594;-74
2024/01/09 03:29:23;;;;;;;1999.90;999.90;;;-0.40;99.90;;;;;;5073115;28;20055;-74
2024/01/09 03:31:49;;;;;;;1999.90;999.90;;;-0.50;99.90;;;;;;5067390;28;20061;-74
2024/01/09 03:34:15;;;;;;;1999.90;999.90;;;-0.50;99.90;;;;;;5052550;28;20057;-74
2024/01/09 03:36:44;;;;;;;1999.90;999.90;;;-0.50;99.90;;;;;;5052430;28;20025;-74
2024/01/09 03:39:11;;;;;;;1999.90;999.90;;;-0.60;99.90;;;;;;5052757;28;20028;-74
2024/01/09 03:41:37;;;;;;;1999.90;999.90;;;-0.60;99.90;;;;;;5052571;28;20021;-74
2024/01/09 03:44:02;;;;;;;1999.90;999.90;;;-0.60;99.90;;;;;;5053064;28;20021;-74
2024/01/09 03:46:28;;;;;;;1999.90;999.90;;;-0.60;99.90;;;;;;5052712;28;20052;-74
2024/01/09 03:48:54;;;;;;;1999.90;999.90;;;-0.60;99.90;;;;;;5052851;28;20071;-74
2024/01/09 03:51:19;;;;;;;1999.90;999.90;;;-0.50;99.90;;;;;;5052620;28;20055;-74
2024/01/09 03:53:45;;;;;;;1999.90;999.90;;;-0.50;99.90;;;;;;5034739;28;20043;-74
2024/01/09 03:56:11;;;;;;;1999.90;999.90;;;-0.60;99.90;;;;;;5052797;28;20033;-74
2024/01/09 03:58:37;;;;;;;1999.90;999.90;;;-0.50;99.90;;;;;;5052625;28;20101;-74
2024/01/09 04:01:03;;;;;;;1999.90;999.90;;;-0.50;99.90;;;;;;5052648;28;20021;-74
2024/01/09 04:03:28;;;;;;;1999.90;999.90;;;-0.50;99.90;;;;;;5052463;28;20108;-74
2024/01/09 04:05:54;;;;;;;1999.90;999.90;;;-0.60;99.90;;;;;;5052008;28;20028;-74
2024/01/09 04:08:20;;;;;;;1999.90;999.90;;;-0.60;99.90;;;;;;5051792;28;20032;-74
2024/01/09 04:10:45;;;;;;;1999.90;999.90;;;-0.60;99.90;;;;;;5051969;28;20107;-74
2024/01/09 04:13:11;;;;;;;1999.90;999.90;;;-0.50;99.90;;;;;;5052549;28;20021;-74
2024/01/09 04:15:36;;;;;;;1999.90;999.90;;;-0.60;99.90;;;;;;5052277;28;20075;-74
2024/01/09 04:18:02;;;;;;;1999.90;999.90;;;-0.50;99.90;;;;;;5052020;28;20044;-74
2024/01/09 04:20:28;;;;;;;1999.90;999.90;;;-0.50;99.90;;;;;;5052361;28;20444;-74
2024/01/09 04:22:53;;;;;;;1999.90;999.90;;;-0.40;99.90;;;;;;5053709;28;20029;-74
2024/01/09 04:25:19;;;;;;;1999.90;999.90;;;-0.50;99.90;;;;;;5058460;28;20064;-74
2024/01/09 04:27:45;;;;;;;1999.90;999.90;;;-0.50;99.90;;;;;;5076251;28;20024;-74
2024/01/09 04:30:11;;;;;;;1999.90;999.90;;;-0.50;99.90;;;;;;5076142;28;20033;-74
2024/01/09 04:32:37;;;;;;;1999.90;999.90;;;-0.50;99.90;;;;;;5064182;28;20021;-74
2024/01/09 04:35:02;;;;;;;1999.90;999.90;;;-0.40;99.90;;;;;;5055853;28;20059;-74
2024/01/09 04:37:28;;;;;;;1999.90;999.90;;;-0.50;99.90;;;;;;5056044;28;20074;-74
2024/01/09 04:39:54;;;;;;;1999.90;999.90;;;-0.50;99.90;;;;;;5055784;28;20433;-74
2024/01/09 04:42:20;;;;;;;1999.90;999.90;;;-0.50;99.90;;;;;;5055824;28;20070;-74
2024/01/09 04:44:45;;;;;;;1999.90;999.90;;;-0.40;99.90;;;;;;5056403;28;20078;-74
2024/01/09 04:47:15;;;;;;;1999.90;999.90;;;-0.40;99.90;;;;;;5056140;28;20025;-74
2024/01/09 04:49:42;;;;;;;1999.90;999.90;;;-0.30;99.90;;;;;;5056186;28;20025;-74
2024/01/09 04:52:08;;;;;;;1999.90;999.90;;;-0.30;99.90;;;;;;5055874;28;20017;-74
2024/01/09 04:54:34;;;;;;;1999.90;999.90;;;-0.40;99.90;;;;;;5055782;28;20484;-74
2024/01/09 04:56:59;;;;;;;1999.90;999.90;;;-0.40;99.90;;;;;;5056068;28;20075;-74
2024/01/09 04:59:25;;;;;;;1999.90;999.90;;;-0.30;99.90;;;;;;5055665;28;20063;-74
2024/01/09 05:01:51;;;;;;;1999.90;999.90;;;-0.30;99.90;;;;;;5055587;28;20094;-74
2024/01/09 05:04:16;;;;;;;1999.90;999.90;;;-0.40;99.90;;;;;;5055702;28;20499;-74
2024/01/09 05:06:42;;;;;;;1999.90;999.90;;;-0.30;99.90;;;;;;5055525;28;20049;-74
2024/01/09 05:09:08;;;;;;;1999.90;999.90;;;-0.30;99.90;;;;;;5055339;28;20036;-74
2024/01/09 05:11:33;;;;;;;1999.90;999.90;;;-0.20;99.90;;;;;;5055778;28;20025;-74
2024/01/09 05:13:59;;;;;;;1999.90;999.90;;;-0.30;99.90;;;;;;5055492;28;20032;-74
2024/01/09 05:16:27;;;;;;;1999.90;999.90;;;-0.20;99.90;;;;;;5054413;28;20037;-74
2024/01/09 05:18:53;;;;;;;1999.90;999.90;;;-0.20;99.90;;;;;;5054006;28;20029;-74
2024/01/09 05:21:19;;;;;;;1999.90;999.90;;;-0.20;99.90;;;;;;5054375;28;20399;-74
2024/01/09 05:23:44;;;;;;;1999.90;999.90;;;-0.20;99.90;;;;;;5054027;28;20032;-74
2024/01/09 05:26:10;;;;;;;1999.90;999.90;;;-0.20;99.90;;;;;;5062764;28;20174;-74
2024/01/09 05:28:36;;;;;;;1999.90;999.90;;;-0.10;99.90;;;;;;5073563;28;20035;-74
2024/01/09 05:31:02;;;;;;;1999.90;999.90;;;-0.20;99.90;;;;;;5074106;28;20034;-74
2024/01/09 05:33:27;;;;;;;1999.90;999.90;;;-0.10;99.90;;;;;;5054257;28;20025;-74
2024/01/09 05:35:53;;;;;;;1999.90;999.90;;;-0.20;99.90;;;;;;5046626;28;20403;-74
2024/01/09 05:38:19;;;;;;;1999.90;999.90;;;-0.10;99.90;;;;;;5050568;28;20033;-74
2024/01/09 05:40:45;;;;;;;1999.90;999.90;;;-0.10;99.90;;;;;;5053847;28;20025;-74
2024/01/09 05:43:11;;;;;;;1999.90;999.90;;;-0.10;99.90;;;;;;5053869;28;20029;-74
2024/01/09 05:45:36;;;;;;;1999.90;999.90;;;-0.20;99.90;;;;;;5053490;28;20502;-74
2024/01/09 05:48:02;;;;;;;1999.90;999.90;;;-0.10;99.90;;;;;;5053841;28;20029;-74
2024/01/09 05:50:28;;;;;;;1999.90;999.90;;;-0.10;99.90;;;;;;5053857;28;20013;-74
2024/01/09 05:52:53;;;;;;;1999.90;999.90;;;-0.10;99.90;;;;;;5053709;28;20029;-74
2024/01/09 05:55:19;;;;;;;1999.90;999.90;;;-0.10;99.90;;;;;;5053760;28;20487;-74
2024/01/09 05:57:45;;;;;;;1999.90;999.90;;;-0.10;99.90;;;;;;5052375;28;20116;-74
2024/01/09 06:00:11;;;;;;;1999.90;999.90;;;0.00;99.90;;;;;;5053421;28;20036;-74
2024/01/09 06:02:37;;;;;;;1999.90;999.90;;;-0.10;99.90;;;;;;5070034;28;20040;-74
2024/01/09 06:05:02;;;;;;;1999.90;999.90;;;-0.10;99.90;;;;;;5073407;28;20050;-74
2024/01/09 06:07:28;;;;;;;1999.90;999.90;;;0.00;99.90;;;;;;5060779;28;20017;-74
2024/01/09 06:09:54;;;;;;;1999.90;999.90;;;0.00;99.90;;;;;;5052797;28;20056;-74
2024/01/09 06:12:19;;;;;;;1999.90;999.90;;;0.00;99.90;;;;;;5053454;28;20024;-74
2024/01/09 06:14:45;;;;;;;1999.90;999.90;;;-0.10;99.90;;;;;;5011029;28;1167397;-74
2024/01/09 06:17:12;;;;;;;1999.90;999.90;;;0.00;99.90;;;;;;5054679;28;20036;-74
2024/01/09 06:19:37;;;;;;;1999.90;999.90;;;0.10;99.90;;;;;;5054179;28;20488;-74
2024/01/09 06:22:03;;;;;;;1999.90;999.90;;;0.00;99.90;;;;;;5054037;28;20021;-74
2024/01/09 06:24:29;;;;;;;1999.90;999.90;;;0.00;99.90;;;;;;5053939;28;20025;-74
2024/01/09 06:26:54;;;;;;;1999.90;999.90;;;0.00;99.90;;;;;;5059433;28;20092;-74
2024/01/09 06:29:21;;;;;;;1999.90;999.90;;;0.00;99.90;;;;;;5050693;28;20028;-74
2024/01/09 06:31:47;;;;;;;1999.90;999.90;;;0.00;99.90;;;;;;5053733;28;20017;-74
2024/01/09 06:34:12;;;;;;;1999.90;999.90;;;0.00;99.90;;;;;;5053356;28;20087;-74
2024/01/09 06:36:38;;;;;;;1999.90;999.90;;;0.00;99.90;;;;;;5053188;28;20033;-74
2024/01/09 06:39:03;;;;;;;1999.90;999.90;;;0.00;99.90;;;;;;5046164;28;20124;-74
2024/01/09 06:41:29;;;;;;;1999.90;999.90;;;0.10;99.90;;;;;;5049604;28;20102;-74
2024/01/09 06:43:55;;;;;;;1999.90;999.90;;;0.10;99.90;;;;;;5053203;28;20033;-74
2024/01/09 06:46:20;;;;;;;1999.90;999.90;;;0.20;99.90;;;;;;5052199;28;20028;-74
2024/01/09 06:48:46;;;;;;;1999.90;999.90;;;0.10;99.90;;;;;;5053370;28;20364;-74
2024/01/09 06:51:12;;;;;;;1999.90;999.90;;;0.10;99.90;;;;;;5052617;28;20060;-74
2024/01/09 06:53:38;;;;;;;1999.90;999.90;;;0.10;99.90;;;;;;5052138;28;20021;-74
2024/01/09 06:56:05;;;;;;;1999.90;999.90;;;0.10;99.90;;;;;;5053039;28;20040;-74
2024/01/09 06:58:30;;;;;;;1999.90;999.90;;;0.10;99.90;;;;;;5053002;28;20025;-74
2024/01/09 07:00:56;;;;;;;1999.90;999.90;;;0.10;99.90;;;;;;5052511;28;20035;-74
2024/01/09 07:03:22;;;;;;;1999.90;999.90;;;0.20;99.90;;;;;;5052937;28;20048;-74
2024/01/09 07:05:47;;;;;;;1999.90;999.90;;;0.10;99.90;;;;;;5052152;28;20033;-74
2024/01/09 07:08:13;;;;;;;1999.90;999.90;;;0.10;99.90;;;;;;5052735;28;20104;-74
2024/01/09 07:10:38;;;;;;;1999.90;999.90;;;0.10;99.90;;;;;;5052436;28;20442;-74
2024/01/09 07:13:04;;;;;;;1999.90;999.90;;;0.10;99.90;;;;;;5052771;28;20057;-74
2024/01/09 07:15:30;;;;;;;1999.90;999.90;;;0.10;99.90;;;;;;5052450;28;20052;-74
2024/01/09 07:17:55;;;;;;;1999.90;999.90;;;0.00;99.90;;;;;;5052160;28;20040;-74
2024/01/09 07:20:21;;;;;;;1999.90;999.90;;;0.10;99.90;;;;;;5051032;28;20025;-74
2024/01/09 07:22:48;;;;;;;1999.90;999.90;;;0.10;99.90;;;;;;5047151;28;20054;-74
2024/01/09 07:25:14;;;;;;;1999.90;999.90;;;0.10;99.90;;;;;;5049286;28;20078;-74
2024/01/09 07:27:40;;;;;;;1999.90;999.90;;;0.10;99.90;;;;;;5055116;28;20033;-73
2024/01/09 07:30:07;;;;;;;1999.90;999.90;;;0.10;99.90;;;;;;5063409;28;20040;-73
2024/01/09 07:32:33;;;;;;;1999.90;999.90;;;0.10;99.90;;;;;;5049841;28;20654;-73
2024/01/09 07:34:59;;;;;;;1999.90;999.90;;;0.10;99.90;;;;;;5046120;28;20043;-73
2024/01/09 07:37:25;;;;;;;1999.90;999.90;;;0.10;99.90;;;;;;5053891;28;20024;-73
2024/01/09 07:39:50;;;;;;;1999.90;999.90;;;0.10;99.90;;;;;;5043887;28;20092;-73
2024/01/09 07:42:16;;;;;;;1999.90;999.90;;;0.10;99.90;;;;;;5045658;28;20438;-73
2024/01/09 07:44:42;;;;;;;1999.90;999.90;;;0.20;99.90;;;;;;5031885;28;20051;-73
2024/01/09 07:47:10;;;;;;;1999.90;999.90;;;0.20;99.90;;;;;;5052661;28;20024;-73
2024/01/09 07:49:36;;;;;;;1999.90;999.90;;;0.20;99.90;;;;;;5060901;28;20017;-73
2024/01/09 07:52:02;;;;;;;1999.90;999.90;;;0.20;99.90;;;;;;5059876;28;20450;-73
2024/01/09 07:54:28;;;;;;;1999.90;999.90;;;0.20;99.90;;;;;;5068427;28;20040;-73
2024/01/09 07:56:53;;;;;;;1999.90;999.90;;;0.20;99.90;;;;;;5054717;28;20108;-71
2024/01/09 07:59:19;;;;;;;1999.90;999.90;;;0.20;99.90;;;;;;5056351;28;20036;-75
2024/01/09 08:01:51;;;;;;;1999.90;999.90;;;0.20;99.90;;;;;;5057288;28;20025;-73
2024/01/09 08:04:16;;;;;;;1999.90;999.90;;;0.20;99.90;;;;;;5058606;28;20060;-74
2024/01/09 08:06:42;;;;;;;1999.90;999.90;;;0.20;99.90;;;;;;5052009;28;20101;-74
2024/01/09 08:09:07;;;;;;;1999.90;999.90;;;0.20;99.90;;;;;;5051913;28;20104;-74
2024/01/09 08:11:33;;;;;;;1999.90;999.90;;;0.30;99.90;;;;;;5062600;28;20097;-74
2024/01/09 08:13:58;;;;;;;1999.90;999.90;;;0.30;99.90;;;;;;5060024;28;20037;-74
2024/01/09 08:16:24;;;;;;;1999.90;999.90;;;0.30;99.90;;;;;;5053092;28;20077;-74
2024/01/09 08:18:50;;;;;;;1999.90;999.90;;;0.40;99.90;;;;;;5058856;28;20509;-74
2024/01/09 08:21:16;;;;;;;1999.90;999.90;;;0.30;99.90;;;;;;5061429;28;20036;-74
2024/01/09 08:23:41;;;;;;;1999.90;999.90;;;0.30;99.90;;;;;;5067665;28;20028;-74
2024/01/09 08:26:07;;;;;;;1999.90;999.90;;;0.40;99.90;;;;;;5045071;28;20482;-74
2024/01/09 08:28:33;;;;;;;1999.90;999.90;;;0.40;99.90;;;;;;5044638;28;20021;-74
2024/01/09 08:30:58;;;;;;;1999.90;999.90;;;0.50;99.90;;;;;;5047916;28;20067;-74
2024/01/09 08:33:24;;;;;;;1999.90;999.90;;;0.50;99.90;;;;;;5047236;28;20029;-72
2024/01/09 08:35:50;;;;;;;1999.90;999.90;;;0.50;99.90;;;;;;5046326;28;20053;-73
2024/01/09 08:38:18;;;;;;;1999.90;999.90;;;0.50;99.90;;;;;;5058391;28;20051;-74
2024/01/09 08:40:44;;;;;;;1999.90;999.90;;;0.50;99.90;;;;;;5042791;28;20079;-72
2024/01/09 08:43:10;;;;;;;1999.90;999.90;;;0.60;99.90;;;;;;5066054;28;20116;-72
2024/01/09 08:45:36;;;;;;;1999.90;999.90;;;0.60;99.90;;;;;;5055116;28;20103;-72
2024/01/09 08:48:02;;;;;;;1999.90;999.90;;;0.60;99.90;;;;;;5060510;28;20045;-72
2024/01/09 08:50:28;;;;;;;1999.90;999.90;;;0.60;99.90;;;;;;5049032;28;20435;-74
2024/01/09 08:52:54;;;;;;;1999.90;999.90;;;0.70;99.90;;;;;;5050355;28;20053;-72
2024/01/09 08:55:20;;;;;;;1999.90;999.90;;;0.70;99.90;;;;;;5069676;28;20031;-72
2024/01/09 08:57:46;;;;;;;1999.90;999.90;;;0.70;99.90;;;;;;5063009;28;20040;-73
2024/01/09 09:00:13;;;;;;;1999.90;999.90;;;0.80;99.90;;;;;;5058614;28;20550;-73
2024/01/09 09:02:38;;;;;;;1999.90;999.90;;;0.70;99.90;;;;;;5051297;28;20443;-73
2024/01/09 09:05:05;;;;;;;1999.90;999.90;;;0.80;99.90;;;;;;5052357;28;20024;-74
2024/01/09 09:07:30;;;;;;;1999.90;999.90;;;0.80;99.90;;;;;;5049219;28;20027;-79
2024/01/09 09:09:57;;;;;;;1999.90;999.90;;;0.90;99.90;;;;;;5044030;28;20029;-72
2024/01/09 09:12:23;;;;;;;1999.90;999.90;;;0.90;99.90;;;;;;5061543;28;20507;-73
2024/01/09 09:14:48;;;;;;;1999.90;999.90;;;0.90;99.90;;;;;;5054915;28;20037;-73
2024/01/09 09:17:16;;;;;;;1999.90;999.90;;;0.90;99.90;;;;;;5069636;28;20039;-74
2024/01/09 09:19:42;;;;;;;1999.90;999.90;;;0.90;99.90;;;;;;5054867;28;20107;-73
2024/01/09 09:22:07;;;;;;;1999.90;999.90;;;1.00;99.90;;;;;;5063362;28;20100;-73
2024/01/09 09:24:33;;;;;;;1999.90;999.90;;;1.10;99.90;;;;;;5041260;28;20036;-73
2024/01/09 09:26:59;;;;;;;1999.90;999.90;;;1.00;99.90;;;;;;5053729;28;20045;-73
2024/01/09 09:29:24;;;;;;;1999.90;999.90;;;1.10;99.90;;;;;;5053253;28;20107;-74
2024/01/09 09:31:50;;;;;;;1999.90;999.90;;;1.10;99.90;;;;;;5055045;28;20086;-74
2024/01/09 09:34:15;;;;;;;1999.90;999.90;;;1.10;99.90;;;;;;5054188;28;20053;-72
2024/01/09 09:36:41;;;;;;;1999.90;999.90;;;1.20;99.90;;;;;;5049458;28;20407;-72
2024/01/09 09:39:07;;;;;;;1999.90;999.90;;;1.20;99.90;;;;;;5053300;28;20079;-73
2024/01/09 09:41:35;;;;;;;1999.90;999.90;;;1.10;99.90;;;;;;5056744;28;20111;-72
2024/01/09 09:44:06;;;;;;;1999.90;999.90;;;1.20;99.90;;;;;;5050028;28;20024;-73
2024/01/09 09:46:34;;;;;;;1999.90;999.90;;;1.20;99.90;;;;;;5055684;28;20029;-72
2024/01/09 09:49:01;;;;;;;1999.90;999.90;;;1.30;99.90;;;;;;5069359;28;20531;-73
2024/01/09 09:51:26;;;;;;;1999.90;999.90;;;1.30;99.90;;;;;;5051396;28;20036;-71
2024/01/09 09:53:54;;;;;;;1999.90;999.90;;;1.20;99.90;;;;;;5064774;28;20021;-71
2024/01/09 09:56:20;;;;;;;1999.90;999.90;;;1.30;99.90;;;;;;5061902;28;20454;-73
2024/01/09 09:58:46;;;;;;;1999.90;999.90;;;1.40;99.90;;;;;;5066786;28;20033;-74
2024/01/09 10:01:14;;;;;;;1999.90;999.90;;;1.40;99.90;;;;;;5070212;28;20036;-74
2024/01/09 10:04:03;;;;;;;1999.90;999.90;;;1.40;99.90;;;;;;5051170;28;20025;-72
2024/01/09 10:06:33;;;;;;;1999.90;999.90;;;1.40;99.90;;;;;;5050002;28;20044;-74
2024/01/09 10:09:01;;;;;;;1999.90;999.90;;;1.40;99.90;;;;;;5044973;28;20029;-74
2024/01/09 10:11:28;;;;;;;1999.90;999.90;;;1.50;99.90;;;;;;5063875;28;20013;-74
2024/01/09 10:13:55;;;;;;;1999.90;999.90;;;1.50;99.90;;;;;;5060143;28;20107;-72
2024/01/09 10:16:21;;;;;;;1999.90;999.90;;;1.50;99.90;;;;;;5060530;28;20106;-72
2024/01/09 10:18:47;;;;;;;1999.90;999.90;;;1.60;99.90;;;;;;5067471;28;20036;-72
2024/01/09 10:21:12;;;;;;;1999.90;999.90;;;1.70;99.90;;;;;;5054472;28;20029;-74
2024/01/09 10:23:39;;;;;;;1999.90;999.90;;;1.60;99.90;;;;;;5066083;28;20040;-74
2024/01/09 10:26:10;;;;;;;1999.90;999.90;;;1.70;99.90;;;;;;5037283;28;20083;-74
2024/01/09 10:28:36;;;;;;;1999.90;999.90;;;1.70;99.90;;;;;;5054649;28;20043;-75
2024/01/09 10:31:06;;;;;;;1999.90;999.90;;;1.70;99.90;;;;;;5052537;28;20447;-73
2024/01/09 10:33:32;;;;;;;1999.90;999.90;;;1.60;99.90;;;;;;5051565;28;20083;-75
2024/01/09 10:35:58;;;;;;;1999.90;999.90;;;1.70;99.90;;;;;;5053322;28;20090;-73
2024/01/09 10:38:25;;;;;;;1999.90;999.90;;;1.70;99.90;;;;;;5051310;28;20025;-74
2024/01/09 10:40:55;;;;;;;1999.90;999.90;;;1.70;99.90;;;;;;5059154;28;20025;-72
2024/01/09 10:43:26;;;;;;;1999.90;999.90;;;1.70;99.90;;;;;;5051846;28;20838;-72
2024/01/09 10:45:53;;;;;;;1999.90;999.90;;;1.90;99.90;;;;;;5054732;28;20033;-72
2024/01/09 10:48:24;;;;;;;1999.90;999.90;;;1.90;99.90;;;;;;5050188;28;20029;-74
2024/01/09 10:50:53;;;;;;;1999.90;999.90;;;2.00;99.90;;;;;;5053800;28;20036;-72
2024/01/09 10:53:22;;;;;;;1999.90;999.90;;;2.00;99.90;;;;;;5053391;28;20112;-72
2024/01/09 10:55:49;;;;;;;1999.90;999.90;;;2.10;99.90;;;;;;5061019;28;20108;-72
2024/01/09 10:58:15;;;;;;;1999.90;999.90;;;2.10;99.90;;;;;;5062105;28;20491;-71
2024/01/09 11:00:41;;;;;;;1999.90;999.90;;;2.10;99.90;;;;;;5056836;28;20037;-74
2024/01/09 11:03:07;;;;;;;1999.90;999.90;;;2.10;99.90;;;;;;5057539;28;20025;-72
2024/01/09 11:05:33;;;;;;;1999.90;999.90;;;2.10;99.90;;;;;;5055823;28;20033;-74
2024/01/09 11:08:02;;;;;;;1999.90;999.90;;;2.10;99.90;;;;;;5069707;28;20095;-72
2024/01/09 11:10:28;;;;;;;1999.90;999.90;;;2.10;99.90;;;;;;5070128;28;20106;-72
2024/01/09 11:12:57;;;;;;;1999.90;999.90;;;2.30;99.90;;;;;;5052274;28;20108;-74
2024/01/09 11:15:31;;;;;;;1999.90;999.90;;;2.20;99.90;;;;;;5040833;28;20503;-72
2024/01/09 11:18:09;;;;;;;1999.90;999.90;;;2.20;99.90;;;;;;5063516;28;20036;-74
2024/01/09 11:20:35;;;;;;;1999.90;999.90;;;2.40;99.90;;;;;;5065455;28;20829;-72
2024/01/09 11:23:00;;;;;;;1999.90;999.90;;;2.30;99.90;;;;;;5048977;28;20022;-72
2024/01/09 11:25:29;;;;;;;1999.90;999.90;;;2.40;99.90;;;;;;5058054;28;20044;-72
2024/01/09 11:27:55;;;;;;;1999.90;999.90;;;2.40;99.90;;;;;;5059964;28;20032;-72
2024/01/09 11:30:28;;;;;;;1999.90;999.90;;;2.40;99.90;;;;;;5071161;28;20029;-72
2024/01/09 11:32:56;;;;;;;1999.90;999.90;;;2.40;99.90;;;;;;5054496;28;20387;-72
2024/01/09 11:35:25;;;;;;;1999.90;999.90;;;2.30;99.90;;;;;;5054525;28;20095;-72
2024/01/09 11:37:51;;;;;;;1999.90;999.90;;;2.30;99.90;;;;;;5056661;28;20450;-72
2024/01/09 11:40:21;;;;;;;1999.90;999.90;;;2.20;99.90;;;;;;5052836;28;20036;-72
2024/01/09 11:42:51;;;;;;;1999.90;999.90;;;2.30;99.90;;;;;;5043908;28;20592;-74
2024/01/09 11:45:24;;;;;;;1999.90;999.90;;;2.50;99.90;;;;;;5060379;28;20021;-74
2024/01/09 11:47:51;;;;;;;1999.90;999.90;;;2.50;99.90;;;;;;5071045;28;20475;-75
2024/01/09 11:50:17;;;;;;;1999.90;999.90;;;2.60;99.90;;;;;;5062617;28;20399;-74
2024/01/09 11:52:43;;;;;;;1999.90;999.90;;;2.60;99.90;;;;;;5066916;28;20032;-72
2024/01/09 11:55:12;;;;;;;1999.90;999.90;;;2.60;99.90;;;;;;5047709;28;20048;-75
2024/01/09 11:57:40;;;;;;;1999.90;999.90;;;2.70;99.90;;;;;;5046319;28;20093;-72
2024/01/09 12:00:08;;;;;;;1999.90;999.90;;;2.70;99.90;;;;;;5049758;28;20028;-72
2024/01/09 12:02:36;;;;;;;1999.90;999.90;;;2.70;99.90;;;;;;5060269;28;20044;-72